sensor_id;sensor_type;location;lat;lon;timestamp;P1;durP1;ratioP1;P2;durP2;ratioP2
69319;SDS011;56467;53.502;49.248;2023-07-09T00:01:57;8.90;;;6.28;;
69319;SDS011;56467;53.502;49.248;2023-07-09T00:04:22;8.68;;;6.05;;
69319;SDS011;56467;53.502;49.248;2023-07-09T00:06:48;8.20;;;6.10;;
69319;SDS011;56467;53.502;49.248;2023-07-09T00:09:15;8.73;;;5.95;;
69319;SDS011;56467;53.502;49.248;2023-07-09T00:11:43;9.55;;;6.50;;
69319;SDS011;56467;53.502;49.248;2023-07-09T00:14:10;8.52;;;6.20;;
69319;SDS011;56467;53.502;49.248;2023-07-09T00:16:38;9.30;;;6.25;;
69319;SDS011;56467;53.502;49.248;2023-07-09T00:19:07;7.95;;;5.93;;
69319;SDS011;56467;53.502;49.248;2023-07-09T00:21:38;8.60;;;5.68;;
69319;SDS011;56467;53.502;49.248;2023-07-09T00:24:06;7.85;;;5.55;;
69319;SDS011;56467;53.502;49.248;2023-07-09T00:26:32;8.90;;;6.05;;
69319;SDS011;56467;53.502;49.248;2023-07-09T00:28:59;9.27;;;6.25;;
69319;SDS011;56467;53.502;49.248;2023-07-09T00:31:25;9.55;;;6.43;;
69319;SDS011;56467;53.502;49.248;2023-07-09T00:33:51;8.95;;;5.97;;
69319;SDS011;56467;53.502;49.248;2023-07-09T00:36:35;9.05;;;5.95;;
69319;SDS011;56467;53.502;49.248;2023-07-09T00:39:01;9.00;;;6.15;;
69319;SDS011;56467;53.502;49.248;2023-07-09T00:41:36;7.72;;;5.72;;
69319;SDS011;56467;53.502;49.248;2023-07-09T00:51:58;7.05;;;5.20;;
69319;SDS011;56467;53.502;49.248;2023-07-09T00:54:32;8.27;;;5.82;;
69319;SDS011;56467;53.502;49.248;2023-07-09T00:57:12;9.18;;;5.88;;
69319;SDS011;56467;53.502;49.248;2023-07-09T00:59:43;7.97;;;5.75;;
69319;SDS011;56467;53.502;49.248;2023-07-09T01:02:15;8.00;;;5.57;;
69319;SDS011;56467;53.502;49.248;2023-07-09T01:04:41;8.27;;;5.78;;
69319;SDS011;56467;53.502;49.248;2023-07-09T01:07:07;8.15;;;5.80;;
69319;SDS011;56467;53.502;49.248;2023-07-09T01:09:33;7.70;;;5.60;;
69319;SDS011;56467;53.502;49.248;2023-07-09T01:12:06;7.95;;;5.50;;
69319;SDS011;56467;53.502;49.248;2023-07-09T01:14:34;7.93;;;5.90;;
69319;SDS011;56467;53.502;49.248;2023-07-09T01:17:05;7.65;;;5.57;;
69319;SDS011;56467;53.502;49.248;2023-07-09T01:19:39;7.78;;;5.35;;
69319;SDS011;56467;53.502;49.248;2023-07-09T01:22:16;7.70;;;5.30;;
69319;SDS011;56467;53.502;49.248;2023-07-09T01:27:22;7.63;;;5.63;;
69319;SDS011;56467;53.502;49.248;2023-07-09T01:29:52;7.75;;;5.43;;
69319;SDS011;56467;53.502;49.248;2023-07-09T01:32:19;7.68;;;5.40;;
69319;SDS011;56467;53.502;49.248;2023-07-09T01:34:47;7.20;;;5.05;;
69319;SDS011;56467;53.502;49.248;2023-07-09T01:37:18;7.38;;;5.13;;
69319;SDS011;56467;53.502;49.248;2023-07-09T01:39:47;7.25;;;5.15;;
69319;SDS011;56467;53.502;49.248;2023-07-09T01:42:14;8.15;;;5.50;;
69319;SDS011;56467;53.502;49.248;2023-07-09T01:44:43;7.80;;;5.40;;
69319;SDS011;56467;53.502;49.248;2023-07-09T01:47:11;7.22;;;5.20;;
69319;SDS011;56467;53.502;49.248;2023-07-09T01:49:37;6.80;;;5.18;;
69319;SDS011;56467;53.502;49.248;2023-07-09T01:52:05;7.28;;;4.97;;
69319;SDS011;56467;53.502;49.248;2023-07-09T01:54:34;7.28;;;5.53;;
69319;SDS011;56467;53.502;49.248;2023-07-09T01:57:13;7.45;;;5.20;;
69319;SDS011;56467;53.502;49.248;2023-07-09T01:59:40;7.15;;;5.22;;
69319;SDS011;56467;53.502;49.248;2023-07-09T02:02:09;8.10;;;5.32;;
69319;SDS011;56467;53.502;49.248;2023-07-09T02:04:40;7.18;;;5.03;;
69319;SDS011;56467;53.502;49.248;2023-07-09T02:07:07;6.97;;;4.97;;
69319;SDS011;56467;53.502;49.248;2023-07-09T02:09:33;7.10;;;5.25;;
69319;SDS011;56467;53.502;49.248;2023-07-09T02:11:59;6.63;;;4.82;;
69319;SDS011;56467;53.502;49.248;2023-07-09T02:14:24;6.63;;;5.13;;
69319;SDS011;56467;53.502;49.248;2023-07-09T02:16:50;8.13;;;5.00;;
69319;SDS011;56467;53.502;49.248;2023-07-09T02:19:17;7.00;;;4.88;;
69319;SDS011;56467;53.502;49.248;2023-07-09T02:21:42;7.00;;;5.00;;
69319;SDS011;56467;53.502;49.248;2023-07-09T02:24:08;6.65;;;5.00;;
69319;SDS011;56467;53.502;49.248;2023-07-09T02:26:33;6.68;;;4.75;;
69319;SDS011;56467;53.502;49.248;2023-07-09T02:28:59;7.85;;;5.20;;
69319;SDS011;56467;53.502;49.248;2023-07-09T02:31:25;6.75;;;4.65;;
69319;SDS011;56467;53.502;49.248;2023-07-09T02:33:55;7.28;;;4.50;;
69319;SDS011;56467;53.502;49.248;2023-07-09T02:36:21;6.95;;;4.90;;
69319;SDS011;56467;53.502;49.248;2023-07-09T02:38:47;7.38;;;5.18;;
69319;SDS011;56467;53.502;49.248;2023-07-09T02:41:13;7.10;;;4.97;;
69319;SDS011;56467;53.502;49.248;2023-07-09T02:43:38;7.00;;;4.70;;
69319;SDS011;56467;53.502;49.248;2023-07-09T02:46:04;5.72;;;4.50;;
69319;SDS011;56467;53.502;49.248;2023-07-09T02:48:29;6.43;;;4.60;;
69319;SDS011;56467;53.502;49.248;2023-07-09T02:50:55;7.35;;;4.65;;
69319;SDS011;56467;53.502;49.248;2023-07-09T02:53:20;6.80;;;4.82;;
69319;SDS011;56467;53.502;49.248;2023-07-09T02:55:46;6.40;;;4.97;;
69319;SDS011;56467;53.502;49.248;2023-07-09T02:58:12;6.90;;;4.63;;
69319;SDS011;56467;53.502;49.248;2023-07-09T03:00:38;6.38;;;4.97;;
69319;SDS011;56467;53.502;49.248;2023-07-09T03:03:03;6.65;;;4.68;;
69319;SDS011;56467;53.502;49.248;2023-07-09T03:05:29;7.10;;;4.70;;
69319;SDS011;56467;53.502;49.248;2023-07-09T03:07:54;7.30;;;5.03;;
69319;SDS011;56467;53.502;49.248;2023-07-09T03:10:20;5.78;;;4.60;;
69319;SDS011;56467;53.502;49.248;2023-07-09T03:12:46;6.63;;;4.85;;
69319;SDS011;56467;53.502;49.248;2023-07-09T03:15:11;6.65;;;4.70;;
69319;SDS011;56467;53.502;49.248;2023-07-09T03:17:37;6.47;;;4.70;;
69319;SDS011;56467;53.502;49.248;2023-07-09T03:20:03;6.10;;;4.47;;
69319;SDS011;56467;53.502;49.248;2023-07-09T03:22:30;7.13;;;4.90;;
69319;SDS011;56467;53.502;49.248;2023-07-09T03:24:55;6.15;;;4.55;;
69319;SDS011;56467;53.502;49.248;2023-07-09T03:27:21;6.35;;;4.30;;
69319;SDS011;56467;53.502;49.248;2023-07-09T03:29:47;6.00;;;4.50;;
69319;SDS011;56467;53.502;49.248;2023-07-09T03:32:12;5.93;;;4.55;;
69319;SDS011;56467;53.502;49.248;2023-07-09T03:34:38;6.50;;;4.68;;
69319;SDS011;56467;53.502;49.248;2023-07-09T03:37:04;6.40;;;4.43;;
69319;SDS011;56467;53.502;49.248;2023-07-09T03:39:30;6.30;;;4.50;;
69319;SDS011;56467;53.502;49.248;2023-07-09T03:41:55;6.80;;;4.50;;
69319;SDS011;56467;53.502;49.248;2023-07-09T03:44:21;5.97;;;4.40;;
69319;SDS011;56467;53.502;49.248;2023-07-09T03:46:46;5.35;;;4.30;;
69319;SDS011;56467;53.502;49.248;2023-07-09T03:49:12;5.70;;;4.35;;
69319;SDS011;56467;53.502;49.248;2023-07-09T03:51:38;6.97;;;4.55;;
69319;SDS011;56467;53.502;49.248;2023-07-09T03:54:03;6.13;;;4.50;;
69319;SDS011;56467;53.502;49.248;2023-07-09T03:56:30;6.45;;;4.55;;
69319;SDS011;56467;53.502;49.248;2023-07-09T03:58:56;6.13;;;4.32;;
69319;SDS011;56467;53.502;49.248;2023-07-09T04:01:21;6.05;;;4.30;;
69319;SDS011;56467;53.502;49.248;2023-07-09T04:03:47;6.30;;;4.38;;
69319;SDS011;56467;53.502;49.248;2023-07-09T04:06:13;6.60;;;4.40;;
69319;SDS011;56467;53.502;49.248;2023-07-09T04:08:38;6.85;;;4.70;;
69319;SDS011;56467;53.502;49.248;2023-07-09T04:11:04;5.82;;;4.22;;
69319;SDS011;56467;53.502;49.248;2023-07-09T04:13:30;5.55;;;4.20;;
69319;SDS011;56467;53.502;49.248;2023-07-09T04:15:56;6.00;;;4.20;;
69319;SDS011;56467;53.502;49.248;2023-07-09T04:18:22;5.90;;;4.03;;
69319;SDS011;56467;53.502;49.248;2023-07-09T04:20:48;6.07;;;4.28;;
69319;SDS011;56467;53.502;49.248;2023-07-09T04:23:15;6.13;;;4.32;;
69319;SDS011;56467;53.502;49.248;2023-07-09T04:25:41;5.95;;;4.25;;
69319;SDS011;56467;53.502;49.248;2023-07-09T04:28:07;5.53;;;4.20;;
69319;SDS011;56467;53.502;49.248;2023-07-09T04:30:32;5.68;;;4.20;;
69319;SDS011;56467;53.502;49.248;2023-07-09T04:32:58;5.55;;;4.05;;
69319;SDS011;56467;53.502;49.248;2023-07-09T04:35:24;6.03;;;4.50;;
69319;SDS011;56467;53.502;49.248;2023-07-09T04:37:49;6.15;;;4.07;;
69319;SDS011;56467;53.502;49.248;2023-07-09T04:40:17;5.63;;;4.10;;
69319;SDS011;56467;53.502;49.248;2023-07-09T04:42:43;5.55;;;3.97;;
69319;SDS011;56467;53.502;49.248;2023-07-09T04:45:10;4.97;;;4.00;;
69319;SDS011;56467;53.502;49.248;2023-07-09T04:47:37;5.78;;;4.07;;
69319;SDS011;56467;53.502;49.248;2023-07-09T04:50:06;5.68;;;4.28;;
69319;SDS011;56467;53.502;49.248;2023-07-09T04:52:33;5.95;;;4.28;;
69319;SDS011;56467;53.502;49.248;2023-07-09T04:54:59;5.38;;;3.97;;
69319;SDS011;56467;53.502;49.248;2023-07-09T04:57:25;5.00;;;4.00;;
69319;SDS011;56467;53.502;49.248;2023-07-09T04:59:51;5.43;;;4.03;;
69319;SDS011;56467;53.502;49.248;2023-07-09T05:02:17;5.18;;;4.10;;
69319;SDS011;56467;53.502;49.248;2023-07-09T05:04:43;6.70;;;4.35;;
69319;SDS011;56467;53.502;49.248;2023-07-09T05:07:08;5.97;;;4.28;;
69319;SDS011;56467;53.502;49.248;2023-07-09T05:09:34;5.38;;;4.00;;
69319;SDS011;56467;53.502;49.248;2023-07-09T05:12:00;5.18;;;4.00;;
69319;SDS011;56467;53.502;49.248;2023-07-09T05:14:26;5.35;;;4.00;;
69319;SDS011;56467;53.502;49.248;2023-07-09T05:16:53;5.30;;;3.95;;
69319;SDS011;56467;53.502;49.248;2023-07-09T05:19:18;5.25;;;4.07;;
69319;SDS011;56467;53.502;49.248;2023-07-09T05:21:44;5.30;;;4.20;;
69319;SDS011;56467;53.502;49.248;2023-07-09T05:24:10;5.80;;;4.15;;
69319;SDS011;56467;53.502;49.248;2023-07-09T05:26:36;5.20;;;3.88;;
69319;SDS011;56467;53.502;49.248;2023-07-09T05:29:05;5.28;;;4.00;;
69319;SDS011;56467;53.502;49.248;2023-07-09T05:31:31;5.50;;;3.90;;
69319;SDS011;56467;53.502;49.248;2023-07-09T05:33:58;4.70;;;3.65;;
69319;SDS011;56467;53.502;49.248;2023-07-09T05:36:25;5.20;;;3.75;;
69319;SDS011;56467;53.502;49.248;2023-07-09T05:38:52;5.30;;;3.90;;
69319;SDS011;56467;53.502;49.248;2023-07-09T05:41:18;4.57;;;3.65;;
69319;SDS011;56467;53.502;49.248;2023-07-09T05:43:44;4.45;;;3.70;;
69319;SDS011;56467;53.502;49.248;2023-07-09T05:46:10;5.57;;;3.83;;
69319;SDS011;56467;53.502;49.248;2023-07-09T05:48:37;5.60;;;4.00;;
69319;SDS011;56467;53.502;49.248;2023-07-09T05:51:03;4.88;;;3.72;;
69319;SDS011;56467;53.502;49.248;2023-07-09T05:53:29;5.38;;;3.83;;
69319;SDS011;56467;53.502;49.248;2023-07-09T05:55:55;5.70;;;4.03;;
69319;SDS011;56467;53.502;49.248;2023-07-09T05:58:21;5.00;;;3.78;;
69319;SDS011;56467;53.502;49.248;2023-07-09T06:00:51;5.65;;;4.00;;
69319;SDS011;56467;53.502;49.248;2023-07-09T06:03:23;5.57;;;3.97;;
69319;SDS011;56467;53.502;49.248;2023-07-09T06:05:50;5.07;;;3.75;;
69319;SDS011;56467;53.502;49.248;2023-07-09T06:08:17;4.72;;;3.75;;
69319;SDS011;56467;53.502;49.248;2023-07-09T06:10:52;4.80;;;3.70;;
69319;SDS011;56467;53.502;49.248;2023-07-09T06:13:28;5.38;;;3.92;;
69319;SDS011;56467;53.502;49.248;2023-07-09T06:15:58;5.07;;;3.50;;
69319;SDS011;56467;53.502;49.248;2023-07-09T06:18:25;4.82;;;3.58;;
69319;SDS011;56467;53.502;49.248;2023-07-09T06:20:55;5.35;;;3.75;;
69319;SDS011;56467;53.502;49.248;2023-07-09T06:23:23;5.18;;;3.65;;
69319;SDS011;56467;53.502;49.248;2023-07-09T06:25:49;4.60;;;3.38;;
69319;SDS011;56467;53.502;49.248;2023-07-09T06:28:26;4.85;;;3.50;;
69319;SDS011;56467;53.502;49.248;2023-07-09T06:30:54;5.32;;;3.92;;
69319;SDS011;56467;53.502;49.248;2023-07-09T06:33:20;5.50;;;3.90;;
69319;SDS011;56467;53.502;49.248;2023-07-09T06:35:47;5.50;;;3.88;;
69319;SDS011;56467;53.502;49.248;2023-07-09T06:38:14;5.45;;;3.83;;
69319;SDS011;56467;53.502;49.248;2023-07-09T06:40:40;5.30;;;3.85;;
69319;SDS011;56467;53.502;49.248;2023-07-09T06:43:06;5.00;;;3.63;;
69319;SDS011;56467;53.502;49.248;2023-07-09T06:45:32;4.90;;;3.70;;
69319;SDS011;56467;53.502;49.248;2023-07-09T06:47:58;5.18;;;3.65;;
69319;SDS011;56467;53.502;49.248;2023-07-09T06:50:25;4.88;;;3.72;;
69319;SDS011;56467;53.502;49.248;2023-07-09T06:52:50;5.28;;;3.72;;
69319;SDS011;56467;53.502;49.248;2023-07-09T06:55:16;5.07;;;3.60;;
69319;SDS011;56467;53.502;49.248;2023-07-09T06:57:42;4.60;;;3.60;;
69319;SDS011;56467;53.502;49.248;2023-07-09T07:00:08;4.97;;;3.95;;
69319;SDS011;56467;53.502;49.248;2023-07-09T07:02:34;5.00;;;3.83;;
69319;SDS011;56467;53.502;49.248;2023-07-09T07:05:00;5.20;;;3.60;;
69319;SDS011;56467;53.502;49.248;2023-07-09T07:07:25;4.85;;;3.60;;
69319;SDS011;56467;53.502;49.248;2023-07-09T07:09:51;4.88;;;3.55;;
69319;SDS011;56467;53.502;49.248;2023-07-09T07:12:24;4.95;;;3.42;;
69319;SDS011;56467;53.502;49.248;2023-07-09T07:14:54;5.15;;;3.50;;
69319;SDS011;56467;53.502;49.248;2023-07-09T07:17:20;5.05;;;3.67;;
69319;SDS011;56467;53.502;49.248;2023-07-09T07:19:47;4.95;;;3.65;;
69319;SDS011;56467;53.502;49.248;2023-07-09T07:22:13;5.03;;;3.55;;
69319;SDS011;56467;53.502;49.248;2023-07-09T07:24:39;5.00;;;3.80;;
69319;SDS011;56467;53.502;49.248;2023-07-09T07:27:04;5.45;;;3.80;;
69319;SDS011;56467;53.502;49.248;2023-07-09T07:29:30;5.28;;;3.63;;
69319;SDS011;56467;53.502;49.248;2023-07-09T07:31:56;5.05;;;3.58;;
69319;SDS011;56467;53.502;49.248;2023-07-09T07:34:22;5.55;;;3.80;;
69319;SDS011;56467;53.502;49.248;2023-07-09T07:36:49;4.45;;;3.40;;
69319;SDS011;56467;53.502;49.248;2023-07-09T07:39:15;4.82;;;3.60;;
69319;SDS011;56467;53.502;49.248;2023-07-09T07:41:40;4.78;;;3.60;;
69319;SDS011;56467;53.502;49.248;2023-07-09T07:44:06;4.88;;;3.70;;
69319;SDS011;56467;53.502;49.248;2023-07-09T07:46:34;4.85;;;3.70;;
69319;SDS011;56467;53.502;49.248;2023-07-09T07:48:59;5.07;;;3.70;;
69319;SDS011;56467;53.502;49.248;2023-07-09T07:51:25;4.90;;;3.58;;
69319;SDS011;56467;53.502;49.248;2023-07-09T07:53:52;4.63;;;3.40;;
69319;SDS011;56467;53.502;49.248;2023-07-09T07:56:18;4.72;;;3.45;;
69319;SDS011;56467;53.502;49.248;2023-07-09T07:58:44;4.90;;;3.67;;
69319;SDS011;56467;53.502;49.248;2023-07-09T08:01:09;4.68;;;3.40;;
69319;SDS011;56467;53.502;49.248;2023-07-09T08:03:35;5.10;;;3.55;;
69319;SDS011;56467;53.502;49.248;2023-07-09T08:06:01;5.15;;;3.70;;
69319;SDS011;56467;53.502;49.248;2023-07-09T08:08:26;4.95;;;3.47;;
69319;SDS011;56467;53.502;49.248;2023-07-09T08:10:59;5.03;;;3.88;;
69319;SDS011;56467;53.502;49.248;2023-07-09T08:13:26;4.45;;;3.42;;
69319;SDS011;56467;53.502;49.248;2023-07-09T08:15:52;4.40;;;3.45;;
69319;SDS011;56467;53.502;49.248;2023-07-09T08:18:17;4.60;;;3.67;;
69319;SDS011;56467;53.502;49.248;2023-07-09T08:20:43;4.30;;;3.42;;
69319;SDS011;56467;53.502;49.248;2023-07-09T08:23:09;5.05;;;3.50;;
69319;SDS011;56467;53.502;49.248;2023-07-09T08:25:35;4.60;;;3.55;;
69319;SDS011;56467;53.502;49.248;2023-07-09T08:28:01;4.65;;;3.22;;
69319;SDS011;56467;53.502;49.248;2023-07-09T08:30:27;4.82;;;3.60;;
69319;SDS011;56467;53.502;49.248;2023-07-09T08:32:52;4.80;;;3.67;;
69319;SDS011;56467;53.502;49.248;2023-07-09T08:35:20;6.18;;;3.80;;
69319;SDS011;56467;53.502;49.248;2023-07-09T08:37:45;4.75;;;3.72;;
69319;SDS011;56467;53.502;49.248;2023-07-09T08:40:15;4.90;;;3.50;;
69319;SDS011;56467;53.502;49.248;2023-07-09T08:42:46;4.88;;;3.45;;
69319;SDS011;56467;53.502;49.248;2023-07-09T08:47:58;4.68;;;3.45;;
69319;SDS011;56467;53.502;49.248;2023-07-09T08:50:35;4.60;;;3.53;;
69319;SDS011;56467;53.502;49.248;2023-07-09T08:53:05;6.00;;;3.50;;
69319;SDS011;56467;53.502;49.248;2023-07-09T08:55:39;4.97;;;3.80;;
69319;SDS011;56467;53.502;49.248;2023-07-09T08:58:15;4.10;;;3.30;;
69319;SDS011;56467;53.502;49.248;2023-07-09T09:03:26;4.57;;;3.50;;
69319;SDS011;56467;53.502;49.248;2023-07-09T09:05:56;4.68;;;3.63;;
69319;SDS011;56467;53.502;49.248;2023-07-09T09:11:32;3.47;;;3.10;;
69319;SDS011;56467;53.502;49.248;2023-07-09T09:16:52;4.45;;;3.45;;
69319;SDS011;56467;53.502;49.248;2023-07-09T09:19:22;4.15;;;3.08;;
69319;SDS011;56467;53.502;49.248;2023-07-09T09:21:54;4.78;;;3.28;;
69319;SDS011;56467;53.502;49.248;2023-07-09T09:24:31;4.80;;;3.33;;
69319;SDS011;56467;53.502;49.248;2023-07-09T09:27:01;4.72;;;3.38;;
69319;SDS011;56467;53.502;49.248;2023-07-09T09:29:27;4.28;;;3.35;;
69319;SDS011;56467;53.502;49.248;2023-07-09T09:31:57;4.90;;;3.47;;
69319;SDS011;56467;53.502;49.248;2023-07-09T09:34:28;4.28;;;3.50;;
69319;SDS011;56467;53.502;49.248;2023-07-09T09:36:55;4.80;;;3.70;;
69319;SDS011;56467;53.502;49.248;2023-07-09T09:39:23;4.85;;;3.33;;
69319;SDS011;56467;53.502;49.248;2023-07-09T09:41:52;5.05;;;3.63;;
69319;SDS011;56467;53.502;49.248;2023-07-09T09:44:21;4.70;;;3.40;;
69319;SDS011;56467;53.502;49.248;2023-07-09T09:46:51;4.85;;;3.60;;
69319;SDS011;56467;53.502;49.248;2023-07-09T09:49:17;4.45;;;3.47;;
69319;SDS011;56467;53.502;49.248;2023-07-09T09:51:45;4.88;;;3.60;;
69319;SDS011;56467;53.502;49.248;2023-07-09T09:54:21;4.60;;;3.50;;
69319;SDS011;56467;53.502;49.248;2023-07-09T09:56:53;5.32;;;3.50;;
69319;SDS011;56467;53.502;49.248;2023-07-09T09:59:31;4.53;;;3.60;;
69319;SDS011;56467;53.502;49.248;2023-07-09T10:02:02;4.28;;;3.20;;
69319;SDS011;56467;53.502;49.248;2023-07-09T10:04:48;4.85;;;3.50;;
69319;SDS011;56467;53.502;49.248;2023-07-09T10:10:02;4.45;;;3.40;;
69319;SDS011;56467;53.502;49.248;2023-07-09T10:12:46;5.05;;;3.70;;
69319;SDS011;56467;53.502;49.248;2023-07-09T10:18:14;4.68;;;3.15;;
69319;SDS011;56467;53.502;49.248;2023-07-09T10:24:14;5.22;;;3.63;;
69319;SDS011;56467;53.502;49.248;2023-07-09T10:35:00;4.30;;;3.22;;
69319;SDS011;56467;53.502;49.248;2023-07-09T10:40:23;4.47;;;3.45;;
69319;SDS011;56467;53.502;49.248;2023-07-09T10:42:57;4.93;;;3.70;;
69319;SDS011;56467;53.502;49.248;2023-07-09T10:45:39;4.88;;;3.53;;
69319;SDS011;56467;53.502;49.248;2023-07-09T10:50:55;4.97;;;3.67;;
69319;SDS011;56467;53.502;49.248;2023-07-09T10:53:29;4.20;;;3.50;;
69319;SDS011;56467;53.502;49.248;2023-07-09T10:56:11;4.82;;;3.53;;
69319;SDS011;56467;53.502;49.248;2023-07-09T11:01:35;6.18;;;3.40;;
69319;SDS011;56467;53.502;49.248;2023-07-09T11:04:08;4.43;;;3.40;;
69319;SDS011;56467;53.502;49.248;2023-07-09T11:06:39;4.88;;;3.50;;
69319;SDS011;56467;53.502;49.248;2023-07-09T11:09:13;5.32;;;3.58;;
69319;SDS011;56467;53.502;49.248;2023-07-09T11:11:50;5.05;;;3.38;;
69319;SDS011;56467;53.502;49.248;2023-07-09T11:16:51;5.10;;;3.53;;
69319;SDS011;56467;53.502;49.248;2023-07-09T11:19:19;5.40;;;3.60;;
69319;SDS011;56467;53.502;49.248;2023-07-09T11:27:19;5.30;;;3.67;;
69319;SDS011;56467;53.502;49.248;2023-07-09T11:30:03;6.38;;;3.70;;
69319;SDS011;56467;53.502;49.248;2023-07-09T11:32:47;5.10;;;3.40;;
69319;SDS011;56467;53.502;49.248;2023-07-09T11:35:25;6.80;;;4.00;;
69319;SDS011;56467;53.502;49.248;2023-07-09T11:37:52;4.97;;;3.42;;
69319;SDS011;56467;53.502;49.248;2023-07-09T11:40:18;5.25;;;3.70;;
69319;SDS011;56467;53.502;49.248;2023-07-09T11:45:32;6.32;;;3.75;;
69319;SDS011;56467;53.502;49.248;2023-07-09T11:48:08;4.53;;;3.38;;
69319;SDS011;56467;53.502;49.248;2023-07-09T11:50:54;4.97;;;3.30;;
69319;SDS011;56467;53.502;49.248;2023-07-09T11:56:09;5.32;;;3.45;;
69319;SDS011;56467;53.502;49.248;2023-07-09T11:58:35;5.88;;;3.53;;
69319;SDS011;56467;53.502;49.248;2023-07-09T12:01:01;5.05;;;3.70;;
69319;SDS011;56467;53.502;49.248;2023-07-09T12:06:02;4.43;;;3.25;;
69319;SDS011;56467;53.502;49.248;2023-07-09T12:08:33;4.97;;;3.50;;
69319;SDS011;56467;53.502;49.248;2023-07-09T12:11:01;5.50;;;3.40;;
69319;SDS011;56467;53.502;49.248;2023-07-09T12:13:27;4.95;;;3.65;;
69319;SDS011;56467;53.502;49.248;2023-07-09T12:15:53;5.80;;;3.72;;
69319;SDS011;56467;53.502;49.248;2023-07-09T12:18:19;5.95;;;3.65;;
69319;SDS011;56467;53.502;49.248;2023-07-09T12:20:47;6.43;;;3.90;;
69319;SDS011;56467;53.502;49.248;2023-07-09T12:23:23;6.50;;;4.40;;
69319;SDS011;56467;53.502;49.248;2023-07-09T12:25:53;7.38;;;4.93;;
69319;SDS011;56467;53.502;49.248;2023-07-09T12:28:19;8.70;;;5.18;;
69319;SDS011;56467;53.502;49.248;2023-07-09T12:30:47;10.38;;;5.63;;
69319;SDS011;56467;53.502;49.248;2023-07-09T12:33:18;11.38;;;5.90;;
69319;SDS011;56467;53.502;49.248;2023-07-09T12:35:46;8.95;;;5.20;;
69319;SDS011;56467;53.502;49.248;2023-07-09T12:38:20;9.85;;;5.50;;
69319;SDS011;56467;53.502;49.248;2023-07-09T12:40:51;11.90;;;6.30;;
69319;SDS011;56467;53.502;49.248;2023-07-09T12:43:19;11.98;;;7.28;;
69319;SDS011;56467;53.502;49.248;2023-07-09T12:45:57;13.38;;;6.97;;
69319;SDS011;56467;53.502;49.248;2023-07-09T12:48:28;11.68;;;7.32;;
69319;SDS011;56467;53.502;49.248;2023-07-09T12:50:55;9.48;;;6.47;;
69319;SDS011;56467;53.502;49.248;2023-07-09T12:53:24;10.88;;;6.30;;
69319;SDS011;56467;53.502;49.248;2023-07-09T12:55:58;10.63;;;6.20;;
69319;SDS011;56467;53.502;49.248;2023-07-09T12:58:29;10.15;;;5.50;;
69319;SDS011;56467;53.502;49.248;2023-07-09T13:00:56;9.07;;;6.00;;
69319;SDS011;56467;53.502;49.248;2023-07-09T13:03:30;9.82;;;6.03;;
69319;SDS011;56467;53.502;49.248;2023-07-09T13:05:58;9.50;;;5.63;;
69319;SDS011;56467;53.502;49.248;2023-07-09T13:08:26;8.82;;;5.75;;
69319;SDS011;56467;53.502;49.248;2023-07-09T13:10:54;8.98;;;5.40;;
69319;SDS011;56467;53.502;49.248;2023-07-09T13:13:21;11.32;;;5.63;;
69319;SDS011;56467;53.502;49.248;2023-07-09T13:15:51;7.78;;;5.07;;
69319;SDS011;56467;53.502;49.248;2023-07-09T13:18:27;7.82;;;5.40;;
69319;SDS011;56467;53.502;49.248;2023-07-09T13:20:54;8.73;;;5.25;;
69319;SDS011;56467;53.502;49.248;2023-07-09T13:23:28;8.40;;;5.60;;
69319;SDS011;56467;53.502;49.248;2023-07-09T13:25:55;9.73;;;5.40;;
69319;SDS011;56467;53.502;49.248;2023-07-09T13:28:28;7.93;;;5.03;;
69319;SDS011;56467;53.502;49.248;2023-07-09T13:31:14;7.40;;;4.80;;
69319;SDS011;56467;53.502;49.248;2023-07-09T13:33:42;7.40;;;5.53;;
69319;SDS011;56467;53.502;49.248;2023-07-09T13:36:08;8.43;;;5.30;;
69319;SDS011;56467;53.502;49.248;2023-07-09T13:38:35;9.25;;;4.82;;
69319;SDS011;56467;53.502;49.248;2023-07-09T13:41:01;9.15;;;5.50;;
69319;SDS011;56467;53.502;49.248;2023-07-09T13:43:37;7.50;;;4.93;;
69319;SDS011;56467;53.502;49.248;2023-07-09T13:46:06;8.77;;;5.22;;
69319;SDS011;56467;53.502;49.248;2023-07-09T13:48:33;8.32;;;5.25;;
69319;SDS011;56467;53.502;49.248;2023-07-09T13:50:59;8.18;;;5.40;;
69319;SDS011;56467;53.502;49.248;2023-07-09T13:53:29;8.35;;;5.40;;
69319;SDS011;56467;53.502;49.248;2023-07-09T13:55:57;8.20;;;5.03;;
69319;SDS011;56467;53.502;49.248;2023-07-09T13:58:24;8.90;;;4.90;;
69319;SDS011;56467;53.502;49.248;2023-07-09T14:00:54;8.40;;;5.20;;
69319;SDS011;56467;53.502;49.248;2023-07-09T14:03:26;7.47;;;4.93;;
69319;SDS011;56467;53.502;49.248;2023-07-09T14:05:53;7.35;;;4.60;;
69319;SDS011;56467;53.502;49.248;2023-07-09T14:08:19;8.55;;;4.93;;
69319;SDS011;56467;53.502;49.248;2023-07-09T14:10:47;8.13;;;4.70;;
69319;SDS011;56467;53.502;49.248;2023-07-09T14:13:17;39.08;;;23.95;;
69319;SDS011;56467;53.502;49.248;2023-07-09T14:15:44;53.30;;;30.60;;
69319;SDS011;56467;53.502;49.248;2023-07-09T14:18:11;45.10;;;26.83;;
69319;SDS011;56467;53.502;49.248;2023-07-09T14:20:39;43.15;;;25.63;;
69319;SDS011;56467;53.502;49.248;2023-07-09T14:23:04;37.67;;;22.70;;
69319;SDS011;56467;53.502;49.248;2023-07-09T14:25:30;37.22;;;21.73;;
69319;SDS011;56467;53.502;49.248;2023-07-09T14:27:56;34.53;;;20.52;;
69319;SDS011;56467;53.502;49.248;2023-07-09T14:30:23;30.52;;;18.73;;
69319;SDS011;56467;53.502;49.248;2023-07-09T14:32:50;28.85;;;17.27;;
69319;SDS011;56467;53.502;49.248;2023-07-09T14:35:18;27.00;;;16.80;;
69319;SDS011;56467;53.502;49.248;2023-07-09T14:37:49;29.27;;;16.80;;
69319;SDS011;56467;53.502;49.248;2023-07-09T14:40:16;27.02;;;15.75;;
69319;SDS011;56467;53.502;49.248;2023-07-09T14:42:45;24.70;;;14.73;;
69319;SDS011;56467;53.502;49.248;2023-07-09T14:45:15;23.45;;;14.43;;
69319;SDS011;56467;53.502;49.248;2023-07-09T14:47:46;21.95;;;13.63;;
69319;SDS011;56467;53.502;49.248;2023-07-09T14:50:12;22.83;;;13.15;;
69319;SDS011;56467;53.502;49.248;2023-07-09T14:52:38;24.60;;;13.55;;
69319;SDS011;56467;53.502;49.248;2023-07-09T14:55:07;21.23;;;13.13;;
69319;SDS011;56467;53.502;49.248;2023-07-09T14:57:39;20.77;;;12.57;;
69319;SDS011;56467;53.502;49.248;2023-07-09T15:00:05;19.73;;;11.65;;
69319;SDS011;56467;53.502;49.248;2023-07-09T15:02:33;18.42;;;11.73;;
69319;SDS011;56467;53.502;49.248;2023-07-09T15:05:01;19.85;;;11.98;;
69319;SDS011;56467;53.502;49.248;2023-07-09T15:07:30;20.25;;;11.68;;
69319;SDS011;56467;53.502;49.248;2023-07-09T15:09:57;18.48;;;11.60;;
69319;SDS011;56467;53.502;49.248;2023-07-09T15:12:26;22.88;;;11.75;;
69319;SDS011;56467;53.502;49.248;2023-07-09T15:15:06;18.83;;;11.07;;
69319;SDS011;56467;53.502;49.248;2023-07-09T15:17:39;17.50;;;10.70;;
69319;SDS011;56467;53.502;49.248;2023-07-09T15:20:04;16.50;;;10.57;;
69319;SDS011;56467;53.502;49.248;2023-07-09T15:22:31;14.93;;;9.93;;
69319;SDS011;56467;53.502;49.248;2023-07-09T15:24:59;16.60;;;10.30;;
69319;SDS011;56467;53.502;49.248;2023-07-09T15:27:25;16.48;;;10.40;;
69319;SDS011;56467;53.502;49.248;2023-07-09T15:29:51;17.98;;;10.25;;
69319;SDS011;56467;53.502;49.248;2023-07-09T15:32:17;15.27;;;9.48;;
69319;SDS011;56467;53.502;49.248;2023-07-09T15:34:43;15.52;;;9.70;;
69319;SDS011;56467;53.502;49.248;2023-07-09T15:37:10;15.10;;;9.57;;
69319;SDS011;56467;53.502;49.248;2023-07-09T15:39:39;17.17;;;9.40;;
69319;SDS011;56467;53.502;49.248;2023-07-09T15:42:08;14.40;;;9.60;;